createdAt,value
2019-03-21T00:02:11.846Z,7.90
2019-03-21T00:04:41.967Z,7.50
2019-03-21T00:07:10.486Z,7.20
2019-03-21T00:09:39.315Z,7.85
2019-03-21T00:12:10.255Z,7.58
2019-03-21T00:14:47.809Z,8.03
2019-03-21T00:17:25.351Z,7.85
2019-03-21T00:19:54.247Z,8.25
2019-03-21T00:22:22.763Z,8.13
2019-03-21T00:24:51.507Z,8.43
2019-03-21T00:27:21.487Z,8.15
2019-03-21T00:29:49.959Z,8.18
2019-03-21T00:32:18.415Z,7.53
2019-03-21T00:34:46.891Z,6.78
2019-03-21T00:37:15.349Z,7.30
2019-03-21T00:39:43.894Z,7.58
2019-03-21T00:42:12.352Z,6.67
2019-03-21T00:44:40.818Z,5.97
2019-03-21T00:47:09.535Z,6.72
2019-03-21T00:49:38.010Z,6.95
2019-03-21T00:52:06.463Z,7.37
2019-03-21T00:54:34.935Z,8.15
2019-03-21T00:57:03.391Z,8.13
2019-03-21T00:59:31.861Z,7.97
2019-03-21T01:02:00.315Z,6.35
2019-03-21T01:04:29.231Z,6.75
2019-03-21T01:06:58.027Z,7.40
2019-03-21T01:09:26.490Z,8.43
2019-03-21T01:11:55.296Z,7.90
2019-03-21T01:14:29.645Z,9.13
2019-03-21T01:16:53.955Z,8.43
2019-03-21T01:19:22.706Z,8.45
2019-03-21T01:21:51.500Z,7.50
2019-03-21T01:24:20.283Z,7.17
2019-03-21T01:26:49.084Z,6.58
2019-03-21T01:29:17.535Z,7.55
2019-03-21T01:31:46.363Z,8.10
2019-03-21T01:34:14.815Z,7.50
2019-03-21T01:36:43.282Z,7.62
2019-03-21T01:39:12.014Z,8.05
2019-03-21T01:41:40.822Z,8.63
2019-03-21T01:44:09.617Z,7.25
2019-03-21T01:46:38.163Z,8.13
2019-03-21T01:49:06.983Z,9.23
2019-03-21T01:51:35.775Z,7.03
2019-03-21T01:54:04.372Z,7.22
2019-03-21T01:56:32.992Z,6.65
2019-03-21T01:59:01.443Z,7.10
2019-03-21T02:01:29.919Z,8.28
2019-03-21T02:03:58.376Z,8.65
2019-03-21T02:06:26.853Z,7.83
2019-03-21T02:08:55.456Z,7.03
2019-03-21T02:11:24.284Z,7.80
2019-03-21T02:13:52.994Z,7.30
2019-03-21T02:16:21.471Z,7.53
2019-03-21T02:18:49.926Z,7.87
2019-03-21T02:21:18.410Z,8.25
2019-03-21T02:23:47.231Z,8.98
2019-03-21T02:26:15.714Z,8.05
2019-03-21T02:28:44.506Z,8.45
2019-03-21T02:31:13.403Z,7.37
2019-03-21T02:33:46.077Z,8.53
2019-03-21T02:36:15.075Z,8.18
2019-03-21T02:38:43.529Z,7.85
2019-03-21T02:41:16.614Z,8.45
2019-03-21T02:43:45.067Z,9.38
2019-03-21T02:46:13.545Z,9.00
2019-03-21T02:48:42.066Z,8.53
2019-03-21T02:51:10.542Z,9.10
2019-03-21T02:53:39.391Z,7.78
2019-03-21T02:56:14.121Z,8.68
2019-03-21T02:58:42.651Z,7.83
2019-03-21T03:01:11.494Z,8.88
2019-03-21T03:03:40.292Z,9.70
2019-03-21T03:06:21.266Z,9.13
2019-03-21T03:08:50.156Z,9.60
2019-03-21T03:11:23.681Z,8.15
2019-03-21T03:13:52.551Z,7.28
2019-03-21T03:16:27.491Z,10.40
2019-03-21T03:18:56.020Z,8.30
2019-03-21T03:21:24.495Z,8.58
2019-03-21T03:23:53.125Z,9.35
2019-03-21T03:26:21.713Z,7.83
2019-03-21T03:28:50.534Z,8.48
2019-03-21T03:31:19.433Z,9.83
2019-03-21T03:33:47.956Z,8.48
2019-03-21T03:36:17.110Z,7.22
2019-03-21T03:38:45.635Z,8.13
2019-03-21T03:41:18.826Z,7.28
2019-03-21T03:43:47.678Z,9.30
2019-03-21T03:46:16.220Z,8.88
2019-03-21T03:48:45.028Z,9.00
2019-03-21T03:51:13.866Z,7.25
2019-03-21T03:53:42.868Z,6.53
2019-03-21T03:56:11.962Z,9.95
2019-03-21T03:58:43.594Z,9.30
2019-03-21T04:01:12.504Z,7.72
2019-03-21T04:03:41.400Z,7.30
2019-03-21T04:06:09.865Z,8.78
2019-03-21T04:08:38.415Z,8.10
2019-03-21T04:11:07.008Z,7.87
2019-03-21T04:13:35.855Z,8.60
2019-03-21T04:16:04.308Z,8.03
2019-03-21T04:18:32.782Z,10.05
2019-03-21T04:21:04.313Z,5.95
2019-03-21T04:23:33.056Z,7.58
2019-03-21T04:26:05.629Z,9.50
2019-03-21T04:28:34.276Z,7.97
2019-03-21T04:31:03.152Z,7.40
2019-03-21T04:33:31.684Z,6.80
2019-03-21T04:36:00.139Z,7.85
2019-03-21T04:38:28.613Z,7.28
2019-03-21T04:40:57.076Z,8.90
2019-03-21T04:43:25.618Z,9.58
2019-03-21T04:46:02.965Z,8.35
2019-03-21T04:48:24.279Z,7.42
2019-03-21T04:50:52.738Z,7.83
2019-03-21T04:53:21.211Z,7.78
2019-03-21T04:55:49.940Z,7.40
2019-03-21T04:58:18.730Z,6.87
2019-03-21T05:00:50.059Z,8.15
2019-03-21T05:03:26.990Z,9.50
2019-03-21T05:06:07.407Z,9.63
2019-03-21T05:08:36.211Z,7.47
2019-03-21T05:11:05.011Z,7.70
2019-03-21T05:13:33.485Z,7.37
2019-03-21T05:16:02.275Z,8.85
2019-03-21T05:18:33.827Z,9.10
2019-03-21T05:21:03.823Z,8.03
2019-03-21T05:23:32.294Z,9.18
2019-03-21T05:26:00.755Z,9.88
2019-03-21T05:28:29.231Z,9.80
2019-03-21T05:31:00.767Z,7.20
2019-03-21T05:33:29.245Z,8.58
2019-03-21T05:35:57.702Z,9.48
2019-03-21T05:38:28.876Z,10.50
2019-03-21T05:40:57.591Z,9.35
2019-03-21T05:43:44.784Z,7.58
2019-03-21T05:46:25.733Z,7.58
2019-03-21T05:48:45.438Z,9.65
2019-03-21T05:51:14.236Z,9.75
2019-03-21T05:53:42.713Z,11.43
2019-03-21T05:56:11.168Z,8.80
2019-03-21T05:58:39.716Z,9.43
2019-03-21T06:01:10.710Z,8.35
2019-03-21T06:03:53.047Z,7.95
2019-03-21T06:06:50.195Z,9.13
2019-03-21T06:09:23.079Z,9.68
2019-03-21T06:12:02.633Z,9.60
2019-03-21T06:14:34.571Z,9.08
2019-03-21T06:17:04.222Z,9.33
2019-03-21T06:19:38.444Z,9.18
2019-03-21T06:22:15.730Z,9.43
2019-03-21T06:24:52.895Z,9.40
2019-03-21T06:27:31.623Z,9.75
2019-03-21T06:30:00.363Z,9.73
2019-03-21T06:32:28.992Z,8.93
2019-03-21T06:34:57.533Z,9.93
2019-03-21T06:37:28.595Z,10.58
2019-03-21T06:39:56.983Z,9.15
2019-03-21T06:42:25.571Z,9.93
2019-03-21T06:44:54.043Z,8.90
2019-03-21T06:47:22.562Z,8.35
2019-03-21T06:49:51.336Z,11.53
2019-03-21T06:52:19.782Z,8.80
2019-03-21T06:54:48.607Z,6.87
2019-03-21T06:57:17.065Z,6.97
2019-03-21T06:59:45.527Z,5.17
2019-03-21T07:02:14.269Z,4.72
2019-03-21T07:04:42.714Z,5.58
2019-03-21T07:07:11.451Z,5.35
2019-03-21T07:09:39.911Z,5.17
2019-03-21T07:12:08.386Z,5.97
2019-03-21T07:14:36.835Z,6.47
2019-03-21T07:17:05.601Z,5.67
2019-03-21T07:19:34.059Z,6.50
2019-03-21T07:22:02.522Z,7.03
2019-03-21T07:24:31.011Z,6.33
2019-03-21T07:26:59.590Z,7.17
2019-03-21T07:29:28.048Z,9.38
2019-03-21T07:31:56.583Z,6.45
2019-03-21T07:34:25.414Z,5.75
2019-03-21T07:36:54.309Z,5.33
2019-03-21T07:39:22.831Z,6.65
2019-03-21T07:41:52.213Z,6.58
2019-03-21T07:44:20.732Z,7.03
2019-03-21T07:46:49.199Z,6.47
2019-03-21T07:49:17.676Z,6.97
2019-03-21T07:51:46.553Z,5.22
2019-03-21T07:54:15.005Z,5.58
2019-03-21T07:56:43.830Z,5.37
2019-03-21T07:59:12.277Z,4.72
2019-03-21T08:01:41.101Z,5.97
2019-03-21T08:04:09.550Z,5.42
2019-03-21T08:06:38.384Z,5.37
2019-03-21T08:09:07.873Z,4.92
2019-03-21T08:11:36.337Z,4.67
2019-03-21T08:14:05.375Z,5.03
2019-03-21T08:16:33.839Z,4.70
2019-03-21T08:19:02.288Z,4.53
2019-03-21T08:21:30.754Z,4.45
2019-03-21T08:23:59.207Z,4.55
2019-03-21T08:26:28.010Z,4.30
2019-03-21T08:28:56.530Z,3.42
2019-03-21T08:31:25.282Z,3.90
2019-03-21T08:33:53.733Z,4.30
2019-03-21T08:36:22.250Z,4.45
2019-03-21T08:38:51.054Z,3.92
2019-03-21T08:41:19.953Z,3.72
2019-03-21T08:43:48.434Z,3.17
2019-03-21T08:46:17.224Z,3.90
2019-03-21T08:48:45.690Z,3.85
2019-03-21T08:51:14.282Z,3.40
2019-03-21T08:53:43.093Z,3.60
2019-03-21T08:56:11.879Z,3.77
2019-03-21T08:58:40.354Z,4.40
2019-03-21T09:01:08.813Z,3.90
2019-03-21T09:03:37.644Z,3.42
2019-03-21T09:06:06.444Z,3.60
2019-03-21T09:08:34.915Z,2.90
2019-03-21T09:11:03.374Z,3.00
2019-03-21T09:13:32.208Z,2.67
2019-03-21T09:16:01.095Z,3.10
2019-03-21T09:18:29.571Z,3.45
2019-03-21T09:20:58.382Z,3.12
2019-03-21T09:23:26.863Z,3.22
2019-03-21T09:25:55.379Z,3.30
2019-03-21T09:28:24.252Z,3.37
2019-03-21T09:30:53.144Z,4.20
2019-03-21T09:33:21.610Z,4.90
2019-03-21T09:35:50.079Z,4.28
2019-03-21T09:38:18.911Z,4.58
2019-03-21T09:40:47.840Z,4.33
2019-03-21T09:43:16.411Z,3.87
2019-03-21T09:45:44.887Z,4.03
2019-03-21T09:48:13.668Z,3.35
2019-03-21T09:50:42.564Z,4.58
2019-03-21T09:53:11.358Z,4.47
2019-03-21T09:55:39.826Z,4.62
2019-03-21T09:58:08.287Z,4.55
2019-03-21T10:00:37.566Z,4.45
2019-03-21T10:03:07.150Z,4.90
2019-03-21T10:05:35.937Z,4.80
2019-03-21T10:08:04.771Z,4.40
2019-03-21T10:10:34.273Z,5.50
2019-03-21T10:13:02.790Z,4.90
2019-03-21T10:15:31.303Z,5.15
2019-03-21T10:18:00.101Z,4.60
2019-03-21T10:20:28.576Z,4.60
2019-03-21T10:22:57.380Z,4.30
2019-03-21T10:25:26.870Z,5.75
2019-03-21T10:27:55.891Z,5.65
2019-03-21T10:30:33.992Z,5.72
2019-03-21T10:33:03.500Z,5.37
2019-03-21T10:35:32.741Z,5.87
2019-03-21T10:38:01.577Z,5.85
2019-03-21T10:40:30.395Z,5.12
2019-03-21T10:42:59.002Z,4.67
2019-03-21T10:45:27.875Z,5.03
2019-03-21T10:47:56.344Z,5.25
2019-03-21T10:50:38.504Z,5.85
2019-03-21T10:53:07.869Z,4.90
2019-03-21T10:55:36.760Z,5.15
2019-03-21T10:58:06.479Z,5.17
2019-03-21T11:00:36.207Z,4.70
2019-03-21T11:03:05.489Z,3.85
2019-03-21T11:05:34.383Z,4.37
2019-03-21T11:08:02.859Z,3.80
2019-03-21T11:10:31.667Z,3.70
2019-03-21T11:13:00.135Z,3.65
2019-03-21T11:15:29.040Z,3.42
2019-03-21T11:17:57.831Z,3.52
2019-03-21T11:20:35.839Z,3.02
2019-03-21T11:23:05.550Z,4.12
2019-03-21T11:25:34.167Z,3.95
2019-03-21T11:28:02.642Z,3.90
2019-03-21T11:30:40.632Z,4.28
2019-03-21T11:33:09.838Z,4.67
2019-03-21T11:35:38.727Z,4.90
2019-03-21T11:38:07.539Z,4.30
2019-03-21T11:40:37.101Z,4.75
2019-03-21T11:43:07.267Z,4.17
2019-03-21T11:45:36.152Z,4.80
2019-03-21T11:48:05.533Z,4.65
2019-03-21T11:50:34.368Z,4.40
2019-03-21T11:53:02.987Z,4.35
2019-03-21T11:55:31.448Z,4.90
2019-03-21T11:57:59.932Z,4.20
2019-03-21T12:00:28.803Z,4.42
2019-03-21T12:02:57.606Z,4.62
2019-03-21T12:05:26.126Z,5.40
2019-03-21T12:07:54.599Z,5.30
2019-03-21T12:10:23.363Z,5.67
2019-03-21T12:12:51.830Z,4.58
2019-03-21T12:15:20.641Z,4.20
2019-03-21T12:17:49.437Z,4.90
2019-03-21T12:20:32.567Z,4.75
2019-03-21T12:23:01.051Z,5.45
2019-03-21T12:25:29.580Z,5.17
2019-03-21T12:27:59.368Z,4.20
2019-03-21T12:30:40.234Z,3.98
2019-03-21T12:33:08.783Z,5.60
2019-03-21T12:35:37.334Z,4.67
2019-03-21T12:38:06.879Z,5.00
2019-03-21T12:40:35.588Z,4.80
2019-03-21T12:43:04.695Z,5.00
2019-03-21T12:45:33.327Z,4.65
2019-03-21T12:48:01.879Z,4.50
2019-03-21T12:50:30.756Z,4.40
2019-03-21T12:52:59.547Z,4.45
2019-03-21T12:55:28.369Z,4.87
2019-03-21T12:57:56.891Z,4.87
2019-03-21T13:00:34.727Z,5.12
2019-03-21T13:03:03.720Z,4.90
2019-03-21T13:05:32.928Z,5.22
2019-03-21T13:08:01.404Z,4.80
2019-03-21T13:10:31.239Z,4.40
2019-03-21T13:12:59.783Z,4.37
2019-03-21T13:15:30.171Z,5.42
2019-03-21T13:18:00.439Z,5.20
2019-03-21T13:20:29.286Z,4.42
2019-03-21T13:22:58.155Z,5.12
2019-03-21T13:25:26.618Z,4.40
2019-03-21T13:27:55.159Z,4.20
2019-03-21T13:30:23.931Z,4.00
2019-03-21T13:32:52.415Z,4.17
2019-03-21T13:35:31.700Z,3.67
2019-03-21T13:37:53.801Z,4.85
2019-03-21T13:40:21.534Z,4.60
2019-03-21T13:42:50.010Z,5.20
2019-03-21T13:45:18.853Z,4.47
2019-03-21T13:47:47.727Z,3.72
2019-03-21T13:50:16.519Z,4.30
2019-03-21T13:52:44.983Z,3.80
2019-03-21T13:55:13.703Z,4.30
2019-03-21T13:57:42.151Z,3.62
2019-03-21T14:00:16.235Z,3.98
2019-03-21T14:02:44.701Z,4.47
2019-03-21T14:05:13.944Z,4.10
2019-03-21T14:07:42.979Z,4.00
2019-03-21T14:10:11.899Z,3.65
2019-03-21T14:12:40.418Z,3.72
2019-03-21T14:15:11.711Z,3.27
2019-03-21T14:17:40.248Z,3.80
2019-03-21T14:20:10.762Z,3.62
2019-03-21T14:22:39.263Z,4.03
2019-03-21T14:25:07.976Z,4.00
2019-03-21T14:27:36.435Z,3.70
2019-03-21T14:30:07.583Z,3.62
2019-03-21T14:32:36.040Z,3.17
2019-03-21T14:35:06.356Z,3.58
2019-03-21T14:37:35.146Z,2.95
2019-03-21T14:40:05.839Z,3.30
2019-03-21T14:42:34.520Z,3.40
2019-03-21T14:45:04.289Z,3.95
2019-03-21T14:47:36.396Z,4.28
2019-03-21T14:50:05.327Z,3.62
2019-03-21T14:52:33.947Z,3.95
2019-03-21T14:55:02.426Z,3.90
2019-03-21T14:57:31.214Z,3.58
2019-03-21T14:59:59.686Z,2.83
2019-03-21T15:02:28.500Z,3.15
2019-03-21T15:04:56.971Z,3.08
2019-03-21T15:07:25.419Z,3.85
2019-03-21T15:09:54.267Z,4.35
2019-03-21T15:12:22.971Z,3.55
2019-03-21T15:14:51.740Z,3.83
2019-03-21T15:17:20.199Z,4.03
2019-03-21T15:19:49.028Z,4.22
2019-03-21T15:22:17.475Z,3.60
2019-03-21T15:24:46.308Z,3.42
2019-03-21T15:27:15.099Z,3.85
2019-03-21T15:29:43.647Z,4.60
2019-03-21T15:32:12.377Z,3.95
2019-03-21T15:34:41.167Z,4.55
2019-03-21T15:37:09.625Z,3.98
2019-03-21T15:39:38.449Z,4.20
2019-03-21T15:42:07.240Z,4.50
2019-03-21T15:44:35.716Z,3.98
2019-03-21T15:47:04.162Z,3.70
2019-03-21T15:49:33.012Z,3.27
2019-03-21T15:52:01.560Z,3.60
2019-03-21T15:54:30.283Z,3.70
2019-03-21T15:56:58.756Z,3.37
2019-03-21T15:59:27.561Z,4.08
2019-03-21T16:01:56.037Z,3.85
2019-03-21T16:04:24.486Z,3.65
2019-03-21T16:06:52.963Z,3.40
2019-03-21T16:09:21.487Z,3.30
2019-03-21T16:11:49.963Z,4.00
2019-03-21T16:14:18.414Z,2.90
2019-03-21T16:16:46.902Z,2.90
2019-03-21T16:19:15.691Z,4.28
2019-03-21T16:21:44.447Z,3.02
2019-03-21T16:24:12.895Z,3.02
2019-03-21T16:26:41.452Z,2.30
2019-03-21T16:29:10.329Z,2.62
2019-03-21T16:31:39.312Z,2.47
2019-03-21T16:34:07.775Z,2.75
2019-03-21T16:36:36.248Z,2.50
2019-03-21T16:39:06.629Z,2.83
2019-03-21T16:41:35.503Z,2.35
2019-03-21T16:44:04.297Z,2.45
2019-03-21T16:46:32.759Z,2.22
2019-03-21T16:49:01.209Z,3.00
2019-03-21T16:51:29.759Z,2.05
2019-03-21T16:53:58.224Z,2.20
2019-03-21T16:56:27.034Z,3.50
2019-03-21T16:58:55.787Z,2.83
2019-03-21T17:01:24.722Z,3.02
2019-03-21T17:03:53.515Z,5.60
2019-03-21T17:06:21.979Z,4.17
2019-03-21T17:08:50.608Z,4.25
2019-03-21T17:11:19.126Z,5.67
2019-03-21T17:13:47.607Z,6.87
2019-03-21T17:16:16.063Z,10.03
2019-03-21T17:18:44.951Z,11.65
2019-03-21T17:21:13.850Z,10.80
2019-03-21T17:23:42.399Z,5.08
2019-03-21T17:26:10.919Z,5.28
2019-03-21T17:28:39.395Z,5.10
2019-03-21T17:31:07.848Z,6.25
2019-03-21T17:33:36.317Z,6.15
2019-03-21T17:36:05.160Z,6.78
2019-03-21T17:38:33.631Z,5.15
2019-03-21T17:41:02.079Z,6.65
2019-03-21T17:43:30.824Z,5.05
2019-03-21T17:45:59.279Z,5.00
2019-03-21T17:48:27.747Z,5.65
2019-03-21T17:50:56.270Z,4.62
2019-03-21T17:53:24.741Z,5.67
2019-03-21T17:55:53.187Z,4.05
2019-03-21T17:58:21.646Z,4.08
2019-03-21T18:00:50.098Z,3.92
2019-03-21T18:03:18.917Z,4.30
2019-03-21T18:05:47.631Z,4.37
2019-03-21T18:08:16.104Z,4.37
2019-03-21T18:10:45.008Z,3.98
2019-03-21T18:13:13.542Z,5.97
2019-03-21T18:15:41.987Z,9.83
2019-03-21T18:18:10.455Z,7.05
2019-03-21T18:20:39.235Z,4.45
2019-03-21T18:23:07.775Z,3.95
2019-03-21T18:25:36.507Z,5.25
2019-03-21T18:28:04.975Z,4.42
2019-03-21T18:30:33.808Z,4.50
2019-03-21T18:33:02.342Z,3.83
2019-03-21T18:35:30.870Z,4.47
2019-03-21T18:37:59.336Z,5.95
2019-03-21T18:40:27.791Z,5.40
2019-03-21T18:42:56.261Z,5.00
2019-03-21T18:45:24.711Z,5.87
2019-03-21T18:47:53.498Z,5.03
2019-03-21T18:50:21.947Z,5.78
2019-03-21T18:52:50.419Z,4.95
2019-03-21T18:55:19.166Z,4.37
2019-03-21T18:57:47.635Z,5.78
2019-03-21T19:00:20.641Z,4.67
2019-03-21T19:02:49.532Z,5.65
2019-03-21T19:05:18.323Z,4.80
2019-03-21T19:07:46.800Z,4.40
2019-03-21T19:10:16.094Z,6.58
2019-03-21T19:12:45.176Z,9.73
2019-03-21T19:15:15.444Z,4.53
2019-03-21T19:17:43.968Z,5.87
2019-03-21T19:20:18.068Z,8.58
2019-03-21T19:22:46.987Z,6.97
2019-03-21T19:25:19.331Z,4.92
2019-03-21T19:27:47.847Z,8.45
2019-03-21T19:30:18.669Z,6.72
2019-03-21T19:32:47.531Z,6.22
2019-03-21T19:35:17.347Z,5.47
2019-03-21T19:37:45.799Z,5.72
2019-03-21T19:40:15.907Z,6.25
2019-03-21T19:42:44.647Z,7.67
2019-03-21T19:45:15.254Z,7.10
2019-03-21T19:47:43.716Z,7.12
2019-03-21T19:50:15.623Z,12.35
2019-03-21T19:52:44.146Z,8.45
2019-03-21T19:55:12.787Z,7.03
2019-03-21T19:57:41.599Z,7.17
2019-03-21T20:00:13.510Z,5.35
2019-03-21T20:02:42.357Z,5.53
2019-03-21T20:05:11.159Z,6.28
2019-03-21T20:07:40.763Z,7.15
2019-03-21T20:10:11.943Z,7.67
2019-03-21T20:12:40.463Z,9.38
2019-03-21T20:15:15.003Z,9.65
2019-03-21T20:17:43.843Z,8.23
2019-03-21T20:20:14.810Z,6.95
2019-03-21T20:22:43.539Z,8.63
2019-03-21T20:25:13.388Z,8.75
2019-03-21T20:27:41.949Z,11.68
2019-03-21T20:30:16.146Z,8.00
2019-03-21T20:32:44.963Z,11.12
2019-03-21T20:35:14.774Z,11.90
2019-03-21T20:37:43.230Z,11.88
2019-03-21T20:40:16.454Z,9.70
2019-03-21T20:42:44.908Z,7.58
2019-03-21T20:45:27.347Z,9.33
2019-03-21T20:47:55.795Z,9.10
2019-03-21T20:50:24.623Z,9.68
2019-03-21T20:52:53.410Z,10.18
2019-03-21T20:55:21.879Z,10.78
2019-03-21T20:57:50.326Z,11.93
2019-03-21T21:00:21.774Z,11.08
2019-03-21T21:02:51.174Z,11.00
2019-03-21T21:05:19.638Z,8.80
2019-03-21T21:07:48.097Z,7.65
2019-03-21T21:10:16.775Z,7.10
2019-03-21T21:12:45.294Z,9.90
2019-03-21T21:15:16.475Z,11.95
2019-03-21T21:17:44.927Z,11.83
2019-03-21T21:20:15.740Z,9.68
2019-03-21T21:22:44.190Z,12.25
2019-03-21T21:25:12.883Z,11.65
2019-03-21T21:27:49.394Z,11.57
2019-03-21T21:30:22.371Z,11.83
2019-03-21T21:32:57.887Z,11.00
2019-03-21T21:35:26.638Z,10.53
2019-03-21T21:37:55.165Z,10.23
2019-03-21T21:40:23.631Z,9.88
2019-03-21T21:42:52.084Z,9.95
2019-03-21T21:45:20.537Z,9.50
2019-03-21T21:47:49.007Z,10.95
2019-03-21T21:50:18.986Z,11.75
2019-03-21T21:52:47.511Z,10.35
2019-03-21T21:55:16.471Z,10.85
2019-03-21T21:57:45.358Z,11.35
2019-03-21T22:00:17.202Z,11.90
2019-03-21T22:02:45.774Z,12.75
2019-03-21T22:05:14.370Z,10.58
2019-03-21T22:07:42.918Z,9.25
2019-03-21T22:10:11.815Z,9.15
2019-03-21T22:12:40.575Z,9.75
2019-03-21T22:15:11.468Z,10.95
2019-03-21T22:17:39.943Z,10.48
2019-03-21T22:20:10.967Z,11.88
2019-03-21T22:22:39.515Z,13.15
2019-03-21T22:25:09.313Z,12.00
2019-03-21T22:27:38.236Z,11.80
2019-03-21T22:30:12.868Z,13.18
2019-03-21T22:32:42.920Z,13.38
2019-03-21T22:35:11.778Z,9.88
2019-03-21T22:37:40.575Z,10.90
2019-03-21T22:40:11.339Z,11.48
2019-03-21T22:42:39.815Z,12.28
2019-03-21T22:45:11.486Z,12.55
2019-03-21T22:47:40.189Z,12.55
2019-03-21T22:50:11.714Z,11.90
2019-03-21T22:52:59.231Z,13.85
2019-03-21T22:55:28.015Z,11.75
2019-03-21T22:57:56.499Z,12.40
2019-03-21T23:00:29.903Z,12.75
2019-03-21T23:02:58.696Z,11.95
2019-03-21T23:05:27.487Z,12.43
2019-03-21T23:07:56.280Z,13.95
2019-03-21T23:10:24.807Z,13.05
2019-03-21T23:12:53.280Z,13.40
2019-03-21T23:15:21.739Z,13.53
2019-03-21T23:17:50.208Z,14.60
2019-03-21T23:20:18.659Z,13.45
2019-03-21T23:22:47.499Z,12.50
2019-03-21T23:25:16.953Z,13.88
2019-03-21T23:27:46.010Z,13.15
2019-03-21T23:30:19.227Z,11.93
2019-03-21T23:33:03.242Z,14.80
2019-03-21T23:35:31.725Z,12.03
2019-03-21T23:38:00.623Z,10.98
2019-03-21T23:40:29.411Z,12.00
2019-03-21T23:42:57.878Z,13.05
2019-03-21T23:45:26.335Z,13.50
2019-03-21T23:47:54.806Z,15.90
2019-03-21T23:50:23.259Z,12.00
2019-03-21T23:52:52.050Z,14.07
2019-03-21T23:55:20.843Z,14.53
2019-03-21T23:57:49.327Z,12.98
